Time;durP1;ratioP1;P1;durP2;ratioP2;P2;SDS_P1;SDS_P2;PMS_P1;PMS_P2;Temp;Humidity;BMP_temperature;BMP_pressure;BME280_temperature;BME280_humidity;BME280_pressure;Samples;Min_cycle;Max_cycle;Signal;HPM_P1;HPM_P2
2022/05/15 00:01:50;;;;;;;27.30;10.38;;;;;;;12.98;100.00;101960.22;5277568;28;20065;-70
2022/05/15 00:04:20;;;;;;;31.40;10.15;;;;;;;12.93;100.00;101954.44;5282465;28;20073;-70
2022/05/15 00:06:51;;;;;;;29.40;10.20;;;;;;;12.87;100.00;101950.53;5282590;28;20054;-70
2022/05/15 00:09:22;;;;;;;38.17;11.38;;;;;;;12.82;100.00;101943.91;5290031;28;20051;-70
2022/05/15 00:11:52;;;;;;;32.92;10.48;;;;;;;12.78;100.00;101953.28;5274677;28;20076;-71
2022/05/15 00:14:23;;;;;;;28.00;11.15;;;;;;;12.75;100.00;101946.38;5276866;28;20029;-70
2022/05/15 00:16:53;;;;;;;36.60;10.90;;;;;;;12.72;100.00;101945.84;5274051;28;20024;-70
2022/05/15 00:19:25;;;;;;;27.02;10.55;;;;;;;12.67;100.00;101933.69;5268408;28;20034;-70
2022/05/15 00:21:55;;;;;;;27.55;10.15;;;;;;;12.62;100.00;101935.97;5282171;28;20020;-70
2022/05/15 00:24:28;;;;;;;31.38;10.40;;;;;;;12.60;100.00;101938.00;5268825;28;20035;-69
2022/05/15 00:26:58;;;;;;;24.60;10.02;;;;;;;12.58;100.00;101929.19;5287803;28;20354;-69
2022/05/15 00:29:30;;;;;;;27.95;9.75;;;;;;;12.58;100.00;101931.06;5276462;28;20035;-69
2022/05/15 00:32:00;;;;;;;44.88;10.63;;;;;;;12.55;100.00;101936.72;5288908;28;20043;-69
2022/05/15 00:34:31;;;;;;;31.38;10.30;;;;;;;12.54;100.00;101932.34;5275584;27;20024;-69
2022/05/15 00:37:02;;;;;;;28.25;9.70;;;;;;;12.57;100.00;101934.75;5288138;28;20362;-70
2022/05/15 00:39:32;;;;;;;27.52;8.82;;;;;;;12.59;100.00;101935.44;5271987;28;20028;-69
2022/05/15 00:42:09;;;;;;;35.47;10.93;;;;;;;12.58;100.00;101939.97;5268628;28;20121;-69
2022/05/15 00:44:39;;;;;;;33.20;9.98;;;;;;;12.58;100.00;101942.66;5281252;28;20024;-69
2022/05/15 00:47:10;;;;;;;36.13;9.40;;;;;;;12.60;100.00;101937.13;5281057;28;20023;-69
2022/05/15 00:49:41;;;;;;;29.35;9.55;;;;;;;12.59;100.00;101936.28;5268530;27;20111;-69
2022/05/15 00:52:15;;;;;;;29.67;9.98;;;;;;;12.58;100.00;101939.97;5267957;28;20020;-69
2022/05/15 00:54:51;;;;;;;29.48;9.48;;;;;;;12.56;100.00;101944.66;5276035;28;20027;-69
2022/05/15 00:57:23;;;;;;;28.35;9.85;;;;;;;12.56;100.00;101941.13;5275678;28;20073;-69
2022/05/15 01:00:08;;;;;;;32.95;10.35;;;;;;;12.53;100.00;101949.50;5277875;28;20507;-69
2022/05/15 01:03:00;;;;;;;28.95;9.40;;;;;;;12.49;100.00;101951.66;5281228;28;20024;-69
2022/05/15 01:05:33;;;;;;;21.58;7.78;;;;;;;12.46;100.00;101951.13;5280583;28;20028;-69
2022/05/15 01:08:14;;;;;;;24.00;9.43;;;;;;;12.41;100.00;101943.50;5288443;28;20046;-69
2022/05/15 01:10:54;;;;;;;26.10;10.02;;;;;;;12.34;100.00;101940.53;5281118;27;20472;-69
2022/05/15 01:13:30;;;;;;;36.92;10.95;;;;;;;12.27;100.00;101939.47;5283554;28;20035;-69
2022/05/15 01:16:13;;;;;;;23.88;9.00;;;;;;;12.22;100.00;101940.94;5288379;28;20156;-69
2022/05/15 01:18:47;;;;;;;38.65;10.50;;;;;;;12.17;100.00;101939.53;5268874;28;20146;-69
2022/05/15 01:21:23;;;;;;;31.05;9.85;;;;;;;12.10;100.00;101938.44;5281403;28;20058;-69
2022/05/15 01:23:54;;;;;;;26.85;9.38;;;;;;;12.02;100.00;101932.97;5288479;28;20028;-69
2022/05/15 01:26:30;;;;;;;36.53;10.70;;;;;;;11.94;100.00;101938.22;5274687;28;20061;-69
2022/05/15 01:29:08;;;;;;;22.02;10.00;;;;;;;11.87;100.00;101937.13;5288621;28;20073;-69
2022/05/15 01:31:39;;;;;;;28.55;9.32;;;;;;;11.78;100.00;101929.91;5269235;28;20019;-69
2022/05/15 01:34:10;;;;;;;29.88;9.60;;;;;;;11.73;100.00;101937.56;5267243;28;20124;-69
2022/05/15 01:36:41;;;;;;;32.25;10.43;;;;;;;11.68;100.00;101929.94;5280763;28;20081;-69
2022/05/15 01:39:11;;;;;;;40.80;9.82;;;;;;;11.66;100.00;101927.41;5266894;28;20102;-69
2022/05/15 01:41:41;;;;;;;34.42;10.63;;;;;;;11.66;100.00;101926.56;5267318;28;20477;-68
2022/05/15 01:44:13;;;;;;;24.90;10.32;;;;;;;11.65;100.00;101919.50;5282572;28;20042;-69
2022/05/15 01:46:43;;;;;;;28.60;9.48;;;;;;;11.62;100.00;101919.78;5288742;28;20488;-69
2022/05/15 01:49:15;;;;;;;29.33;10.05;;;;;;;11.59;100.00;101922.75;5274063;28;20031;-68
2022/05/15 01:51:46;;;;;;;25.45;9.57;;;;;;;11.55;100.00;101919.53;5277220;28;20020;-68
2022/05/15 01:54:17;;;;;;;26.85;10.65;;;;;;;11.51;100.00;101918.13;5280206;28;20024;-68
2022/05/15 01:56:47;;;;;;;25.08;9.10;;;;;;;11.51;100.00;101918.13;5279802;28;20032;-69
2022/05/15 01:59:18;;;;;;;30.60;10.38;;;;;;;11.52;100.00;101911.75;5287735;28;20314;-69
2022/05/15 02:01:49;;;;;;;30.25;10.48;;;;;;;11.54;100.00;101911.59;5273573;28;20035;-68
2022/05/15 02:04:19;;;;;;;42.22;13.00;;;;;;;11.53;100.00;101910.75;5266612;28;20024;-68
2022/05/15 02:06:50;;;;;;;35.47;10.48;;;;;;;11.48;100.00;101913.03;5279264;28;20016;-68
2022/05/15 02:09:21;;;;;;;31.48;10.50;;;;;;;11.36;100.00;101912.38;5267029;28;20020;-68
2022/05/15 02:11:52;;;;;;;28.05;10.25;;;;;;;11.26;100.00;101916.09;5269428;28;20041;-68
2022/05/15 02:14:23;;;;;;;36.83;10.90;;;;;;;11.17;100.00;101914.25;5283674;28;20610;-68
2022/05/15 02:16:54;;;;;;;24.92;9.30;;;;;;;11.07;100.00;101919.66;5284410;28;20046;-68
2022/05/15 02:19:25;;;;;;;31.60;11.25;;;;;;;11.00;100.00;101918.53;5287049;28;20423;-69
2022/05/15 02:21:56;;;;;;;38.72;11.10;;;;;;;10.89;100.00;101917.69;5274136;28;20019;-68
2022/05/15 02:24:26;;;;;;;29.48;10.57;;;;;;;10.76;100.00;101911.75;5273424;28;20396;-68
2022/05/15 02:26:57;;;;;;;34.55;11.50;;;;;;;10.64;100.00;101918.22;5266286;28;20016;-69
2022/05/15 02:29:28;;;;;;;31.63;12.15;;;;;;;10.51;100.00;101907.78;5279938;28;20023;-68
2022/05/15 02:31:58;;;;;;;40.13;11.88;;;;;;;10.44;100.00;101911.16;5266368;28;20489;-68
2022/05/15 02:34:29;;;;;;;35.72;10.35;;;;;;;10.38;100.00;101913.41;5281380;28;20023;-68
2022/05/15 02:37:00;;;;;;;33.25;12.07;;;;;;;10.34;100.00;101914.69;5286634;28;20085;-68
2022/05/15 02:39:30;;;;;;;35.90;10.82;;;;;;;10.30;100.00;101907.91;5270175;28;20028;-68
2022/05/15 02:42:01;;;;;;;30.25;10.95;;;;;;;10.26;100.00;101905.66;5276836;28;20043;-68
2022/05/15 02:44:32;;;;;;;33.65;11.50;;;;;;;10.17;100.00;101909.97;5268906;28;20027;-68
2022/05/15 02:47:03;;;;;;;31.30;12.63;;;;;;;10.07;100.00;101901.03;5266735;28;20024;-68
2022/05/15 02:52:23;;;;;;;33.17;12.07;;;;;;;9.94;100.00;101895.06;5287292;28;20030;-68
2022/05/15 02:54:54;;;;;;;33.47;11.55;;;;;;;9.89;100.00;101900.88;5287446;28;20019;-68
2022/05/15 02:57:25;;;;;;;26.70;10.43;;;;;;;9.84;100.00;101898.59;5273340;28;20030;-68
2022/05/15 02:59:55;;;;;;;27.98;11.00;;;;;;;9.84;100.00;101911.16;5275837;28;20362;-68
2022/05/15 03:02:26;;;;;;;41.30;11.75;;;;;;;9.82;100.00;101911.25;5279652;28;20059;-67
2022/05/15 03:04:56;;;;;;;36.72;12.30;;;;;;;9.79;100.00;101910.72;5277711;28;20469;-67
2022/05/15 03:07:28;;;;;;;31.92;11.68;;;;;;;9.75;100.00;101907.44;5286779;28;20020;-68
2022/05/15 03:09:59;;;;;;;40.22;12.80;;;;;;;9.72;100.00;101912.22;5286948;28;20035;-67
2022/05/15 03:12:29;;;;;;;35.15;11.90;;;;;;;9.66;100.00;101913.59;5279542;28;20028;-68
2022/05/15 03:15:00;;;;;;;29.20;11.85;;;;;;;9.58;100.00;101914.25;5280040;28;20354;-67
2022/05/15 03:17:32;;;;;;;33.22;12.85;;;;;;;9.54;100.00;101917.38;5287317;28;20020;-68
2022/05/15 03:20:05;;;;;;;33.30;13.43;;;;;;;9.50;100.00;101914.09;5273038;28;20500;-67
2022/05/15 03:22:35;;;;;;;28.42;9.57;;;;;;;9.47;100.00;101911.66;5286929;28;20055;-67
2022/05/15 03:25:07;;;;;;;24.73;8.55;;;;;;;9.48;100.00;101910.69;5286476;27;20067;-68
2022/05/15 03:27:38;;;;;;;25.40;10.93;;;;;;;9.49;100.00;101907.06;5274973;28;20472;-68
2022/05/15 03:30:09;;;;;;;31.48;12.75;;;;;;;9.48;100.00;101905.31;5286109;28;20020;-67
2022/05/15 03:32:40;;;;;;;46.88;14.02;;;;;;;9.48;100.00;101901.81;5289998;28;20080;-68
2022/05/15 03:35:11;;;;;;;35.33;12.40;;;;;;;9.45;100.00;101892.22;5290568;28;20023;-67
2022/05/15 03:37:42;;;;;;;33.75;12.55;;;;;;;9.41;100.00;101893.47;5288783;28;20373;-67
2022/05/15 03:40:15;;;;;;;37.15;10.90;;;;;;;9.37;100.00;101893.84;5270002;28;20105;-68
2022/05/15 03:42:46;;;;;;;33.13;12.82;;;;;;;9.33;100.00;101894.13;5283462;28;20020;-68
2022/05/15 03:45:17;;;;;;;36.00;12.43;;;;;;;9.31;100.00;101889.88;5269575;28;20023;-67
2022/05/15 03:47:50;;;;;;;36.83;13.45;;;;;;;9.29;100.00;101894.53;5269175;28;20098;-68
2022/05/15 03:50:25;;;;;;;34.35;11.95;;;;;;;9.24;100.00;101897.59;5269364;28;20089;-67
2022/05/15 03:52:57;;;;;;;33.15;12.65;;;;;;;9.20;100.00;101898.00;5276565;28;20435;-68
2022/05/15 03:55:28;;;;;;;43.45;13.90;;;;;;;9.20;100.00;101889.97;5290238;28;20076;-68
2022/05/15 03:57:58;;;;;;;38.25;12.57;;;;;;;9.18;100.00;101891.91;5291053;28;20023;-68
2022/05/15 04:00:29;;;;;;;27.58;11.60;;;;;;;9.16;100.00;101892.06;5289898;28;20031;-68
2022/05/15 04:03:00;;;;;;;35.42;12.30;;;;;;;9.18;100.00;101892.75;5290476;28;20130;-68
2022/05/15 04:05:32;;;;;;;35.28;11.55;;;;;;;9.21;100.00;101888.97;5290049;28;20084;-68
2022/05/15 04:08:03;;;;;;;31.67;11.27;;;;;;;9.21;100.00;101887.16;5279243;28;20064;-68
2022/05/15 04:10:35;;;;;;;30.95;11.98;;;;;;;9.22;100.00;101888.00;5273679;28;20036;-68
2022/05/15 04:13:05;;;;;;;31.95;11.52;;;;;;;9.25;100.00;101890.41;5290229;28;20054;-68
2022/05/15 04:15:36;;;;;;;27.48;10.95;;;;;;;9.26;100.00;101892.13;5289700;28;20059;-68
2022/05/15 04:18:09;;;;;;;34.65;12.27;;;;;;;9.24;100.00;101896.75;5290215;28;20377;-68
2022/05/15 04:20:39;;;;;;;35.30;10.57;;;;;;;9.23;100.00;101901.25;5282254;28;20024;-68
2022/05/15 04:23:10;;;;;;;24.77;11.60;;;;;;;9.25;100.00;101898.47;5282073;28;20020;-68
2022/05/15 04:25:40;;;;;;;39.55;13.73;;;;;;;9.26;100.00;101897.47;5268849;28;20028;-68
2022/05/15 04:28:11;;;;;;;33.05;11.38;;;;;;;9.28;100.00;101895.50;5271211;28;20127;-68
2022/05/15 04:30:41;;;;;;;33.33;12.48;;;;;;;9.28;100.00;101904.38;5289891;28;20508;-67
2022/05/15 04:33:11;;;;;;;31.35;10.85;;;;;;;9.27;100.00;101900.00;5276522;28;20434;-68
2022/05/15 04:35:42;;;;;;;26.77;11.13;;;;;;;9.26;100.00;101909.03;5277592;28;20116;-67
2022/05/15 04:38:13;;;;;;;32.58;12.23;;;;;;;9.27;100.00;101893.81;5268474;28;20103;-67
2022/05/15 04:40:44;;;;;;;31.85;12.18;;;;;;;9.28;100.00;101898.16;5268529;28;20100;-67
2022/05/15 04:43:14;;;;;;;28.60;11.95;;;;;;;9.30;100.00;101898.91;5267670;28;20020;-68
2022/05/15 04:45:45;;;;;;;32.28;11.35;;;;;;;9.34;100.00;101893.16;5281846;28;20469;-67
2022/05/15 04:48:16;;;;;;;31.23;11.77;;;;;;;9.42;100.00;101897.84;5276669;28;20074;-67
2022/05/15 04:50:47;;;;;;;28.90;11.20;;;;;;;9.52;100.00;101900.56;5275492;28;20345;-67
2022/05/15 04:53:17;;;;;;;36.17;11.25;;;;;;;9.58;100.00;101900.88;5280089;28;20116;-67
2022/05/15 04:55:47;;;;;;;29.58;11.93;;;;;;;9.70;100.00;101906.16;5285023;28;20055;-67
2022/05/15 04:58:18;;;;;;;36.42;11.75;;;;;;;9.79;100.00;101900.00;5278932;27;20016;-67
2022/05/15 05:00:49;;;;;;;29.92;11.95;;;;;;;9.90;100.00;101896.34;5281071;28;20473;-67
2022/05/15 05:03:20;;;;;;;31.77;10.63;;;;;;;10.02;100.00;101898.78;5268359;28;20055;-67
2022/05/15 05:05:50;;;;;;;31.27;12.23;;;;;;;10.17;100.00;101890.34;5281939;28;20056;-67
2022/05/15 05:08:21;;;;;;;32.92;11.43;;;;;;;10.34;100.00;101885.19;5289327;28;20553;-67
2022/05/15 05:10:51;;;;;;;43.45;11.90;;;;;;;10.55;100.00;101889.59;5275017;28;20030;-67
2022/05/15 05:13:22;;;;;;;28.30;11.27;;;;;;;10.76;100.00;101895.66;5274681;28;20574;-67
2022/05/15 05:15:52;;;;;;;32.47;11.30;;;;;;;10.95;100.00;101891.25;5288409;28;20030;-67
2022/05/15 05:18:23;;;;;;;37.05;11.48;;;;;;;11.11;100.00;101899.56;5275270;27;20020;-68
2022/05/15 05:20:53;;;;;;;38.65;11.95;;;;;;;11.28;100.00;101906.03;5288585;28;20049;-67
2022/05/15 05:23:24;;;;;;;37.35;13.10;;;;;;;11.40;100.00;101904.88;5286024;28;20481;-67
2022/05/15 05:25:55;;;;;;;39.25;12.15;;;;;;;11.56;100.00;101899.72;5267111;28;20093;-67
2022/05/15 05:28:26;;;;;;;34.20;12.50;;;;;;;11.72;100.00;101896.41;5281015;28;20028;-67
2022/05/15 05:30:57;;;;;;;37.60;13.00;;;;;;;11.87;100.00;101896.81;5271798;27;20028;-68
2022/05/15 05:33:28;;;;;;;36.75;12.43;;;;;;;12.02;100.00;101894.47;5278597;28;20491;-68
2022/05/15 05:35:58;;;;;;;30.98;12.45;;;;;;;12.15;100.00;101892.28;5286348;28;20024;-68
2022/05/15 05:38:29;;;;;;;43.15;13.27;;;;;;;12.25;100.00;101892.19;5272567;28;20465;-67
2022/05/15 05:40:59;;;;;;;41.67;13.00;;;;;;;12.33;100.00;101886.91;5272932;28;20023;-67
2022/05/15 05:43:30;;;;;;;39.42;13.32;;;;;;;12.42;100.00;101884.13;5286793;28;20027;-67
2022/05/15 05:46:00;;;;;;;30.90;13.45;;;;;;;12.56;100.00;101888.16;5271458;28;20098;-67
2022/05/15 05:48:31;;;;;;;35.08;13.82;;;;;;;12.73;100.00;101899.06;5285897;28;20149;-67
2022/05/15 05:51:01;;;;;;;38.33;13.85;;;;;;;12.96;100.00;101898.41;5286215;28;20034;-67
2022/05/15 05:53:33;;;;;;;35.60;12.98;;;;;;;13.38;100.00;101897.72;5286522;28;20019;-68
2022/05/15 05:56:04;;;;;;;33.75;12.57;;;;;;;14.13;100.00;101899.75;5280946;28;20023;-68
2022/05/15 05:58:36;;;;;;;37.17;13.07;;;;;;;15.03;100.00;101901.59;5265137;28;20072;-68
2022/05/15 06:01:06;;;;;;;33.88;13.30;;;;;;;15.82;100.00;101896.38;5271863;28;20094;-68
2022/05/15 06:06:26;;;;;;;27.38;12.38;;;;;;;16.59;100.00;101893.75;5285923;28;20016;-68
2022/05/15 06:08:57;;;;;;;26.25;12.95;;;;;;;16.72;100.00;101898.59;5267223;28;20107;-68
2022/05/15 06:11:27;;;;;;;30.17;12.27;;;;;;;17.01;100.00;101898.66;5277338;28;20032;-68
2022/05/15 06:13:58;;;;;;;26.23;11.05;;;;;;;17.68;100.00;101905.97;5272122;28;20099;-68
2022/05/15 06:16:31;;;;;;;30.52;11.95;;;;;;;18.37;100.00;101911.03;5264518;28;20028;-69
2022/05/15 06:19:01;;;;;;;28.58;11.95;;;;;;;18.72;100.00;101911.22;5265053;28;20028;-68
2022/05/15 06:21:32;;;;;;;24.10;11.93;;;;;;;18.99;100.00;101899.56;5278555;28;20030;-68
2022/05/15 06:24:03;;;;;;;26.70;12.00;;;;;;;19.24;100.00;101901.84;5264673;28;20132;-68
2022/05/15 06:26:33;;;;;;;28.63;11.70;;;;;;;19.46;100.00;101899.91;5266602;28;20456;-69
2022/05/15 06:29:04;;;;;;;31.85;12.30;;;;;;;19.68;100.00;101898.84;5275370;28;20039;-68
2022/05/15 06:31:34;;;;;;;31.10;11.93;;;;;;;20.00;100.00;101901.91;5278415;28;20089;-69
2022/05/15 06:34:04;;;;;;;27.42;11.13;;;;;;;20.50;100.00;101895.19;5276958;28;20019;-69
2022/05/15 06:36:36;;;;;;;24.58;11.52;;;;;;;20.73;100.00;101896.69;5285521;28;20118;-69
2022/05/15 06:39:06;;;;;;;28.70;12.00;;;;;;;20.92;100.00;101906.75;5285884;27;20031;-69
2022/05/15 06:41:37;;;;;;;26.45;11.07;;;;;;;21.16;100.00;101902.56;5285765;28;20035;-70
2022/05/15 06:44:08;;;;;;;24.08;10.82;;;;;;;21.32;100.00;101898.59;5285911;28;20507;-69
2022/05/15 06:46:38;;;;;;;26.05;10.07;;;;;;;21.40;99.12;101893.75;5285937;28;20023;-69
2022/05/15 06:49:09;;;;;;;23.42;12.13;;;;;;;21.26;99.87;101894.81;5270294;28;20024;-69
2022/05/15 06:51:40;;;;;;;24.67;10.68;;;;;;;21.38;100.00;101887.66;5286029;28;20392;-69
2022/05/15 06:54:10;;;;;;;24.70;10.90;;;;;;;21.69;100.00;101888.88;5272371;28;20116;-69
2022/05/15 06:59:30;;;;;;;27.88;10.27;;;;;;;21.90;93.48;101885.84;5270212;28;20028;-69
2022/05/15 07:02:01;;;;;;;21.63;10.50;;;;;;;21.64;94.96;101891.41;5270755;28;20127;-69
2022/05/15 07:04:32;;;;;;;21.23;11.18;;;;;;;21.96;99.50;101889.59;5273499;28;20536;-69
2022/05/15 07:07:03;;;;;;;23.48;10.30;;;;;;;22.17;97.53;101889.31;5289511;28;20095;-69
2022/05/15 07:09:34;;;;;;;25.70;10.55;;;;;;;22.57;94.05;101880.06;5289617;28;20028;-69
2022/05/15 07:12:06;;;;;;;21.20;10.38;;;;;;;22.54;90.27;101878.63;5275717;28;20512;-69
2022/05/15 07:14:37;;;;;;;21.77;10.75;;;;;;;22.49;89.09;101879.28;5284174;28;20114;-70
2022/05/15 07:17:07;;;;;;;23.88;9.32;;;;;;;22.77;88.05;101877.16;5270918;28;20488;-69
2022/05/15 07:19:38;;;;;;;18.50;8.68;;;;;;;22.74;84.07;101875.72;5281901;28;20020;-70
2022/05/15 07:22:10;;;;;;;19.85;9.35;;;;;;;22.74;84.09;101878.44;5289545;27;20027;-70
2022/05/15 07:24:41;;;;;;;22.08;9.05;;;;;;;22.91;85.53;101881.50;5289079;28;20107;-70
2022/05/15 07:27:11;;;;;;;25.15;9.88;;;;;;;23.11;85.33;101884.91;5276018;28;20077;-70
2022/05/15 07:29:42;;;;;;;21.15;9.98;;;;;;;23.49;83.65;101892.97;5288082;28;20473;-69
2022/05/15 07:32:12;;;;;;;19.25;8.93;;;;;;;23.86;81.13;101879.31;5268520;28;20031;-70
2022/05/15 07:34:43;;;;;;;20.83;8.70;;;;;;;23.89;76.63;101884.31;5271324;28;20119;-70
2022/05/15 07:37:13;;;;;;;21.30;8.60;;;;;;;24.42;82.43;101886.38;5277977;28;20556;-69
2022/05/15 07:39:44;;;;;;;21.35;8.38;;;;;;;24.79;77.81;101883.47;5287115;28;20442;-70
2022/05/15 07:42:14;;;;;;;19.80;8.63;;;;;;;25.19;75.01;101888.31;5289561;28;20160;-70
2022/05/15 07:44:45;;;;;;;19.80;8.10;;;;;;;25.07;71.27;101877.34;5289303;28;20030;-70
2022/05/15 07:47:16;;;;;;;17.58;7.60;;;;;;;25.06;72.38;101872.91;5289061;28;20015;-69
2022/05/15 07:49:47;;;;;;;16.88;7.57;;;;;;;25.28;73.02;101870.44;5289353;27;20038;-70
2022/05/15 07:52:18;;;;;;;18.88;7.93;;;;;;;25.18;70.34;101862.78;5275193;28;20396;-70
2022/05/15 07:54:49;;;;;;;18.42;7.63;;;;;;;25.28;68.53;101862.19;5279898;28;20096;-70
2022/05/15 07:57:20;;;;;;;17.83;7.88;;;;;;;25.11;70.73;101864.00;5284475;28;20035;-70
2022/05/15 07:59:50;;;;;;;21.10;8.38;;;;;;;25.43;69.12;101873.50;5288636;28;20389;-70
2022/05/15 08:02:21;;;;;;;21.27;7.65;;;;;;;25.63;69.97;101864.06;5274968;28;20099;-70
2022/05/15 08:10:32;;;;;;;17.58;7.72;;;;;;;25.49;66.33;101850.56;5286190;28;20023;-70
2022/05/15 08:13:04;;;;;;;16.00;7.85;;;;;;;25.65;67.80;101854.47;5288950;28;20028;-70
2022/05/15 08:15:36;;;;;;;23.35;7.80;;;;;;;25.83;65.92;101842.53;5281249;28;20024;-70
2022/05/15 08:23:51;;;;;;;15.00;6.55;;;;;;;25.60;64.57;101845.28;5275386;28;20042;-70
2022/05/15 08:26:22;;;;;;;16.40;6.53;;;;;;;25.76;62.25;101828.94;5288159;28;20177;-71
2022/05/15 08:28:54;;;;;;;17.95;6.63;;;;;;;25.70;63.28;101834.50;5278954;28;20032;-70
2022/05/15 08:31:25;;;;;;;21.52;7.03;;;;;;;26.19;64.98;101818.47;5281058;28;20107;-70
2022/05/15 08:33:57;;;;;;;14.43;6.15;;;;;;;26.32;62.89;101823.66;5279101;28;20469;-70
2022/05/15 08:36:27;;;;;;;16.70;5.53;;;;;;;26.64;62.41;101825.88;5288207;28;20115;-70
2022/05/15 08:38:59;;;;;;;21.45;6.13;;;;;;;26.80;59.34;101822.28;5276245;28;20350;-70
2022/05/15 08:41:30;;;;;;;13.00;5.22;;;;;;;26.72;60.52;101818.06;5286471;28;20015;-70
2022/05/15 08:44:14;;;;;;;18.35;5.60;;;;;;;26.96;59.46;101823.34;5288330;28;20031;-70
2022/05/15 08:47:03;;;;;;;13.60;5.27;;;;;;;27.22;60.25;101819.09;5279082;27;20024;-70
2022/05/15 08:49:38;;;;;;;11.60;5.00;;;;;;;27.15;64.40;101815.69;5272837;28;20273;-70
2022/05/15 08:52:27;;;;;;;;;;;;;;;27.36;60.51;101803.84;5287964;28;20111;-70
2022/05/15 08:55:19;;;;;;;16.55;4.93;;;;;;;27.49;55.51;101810.91;5287929;28;20269;-70
2022/05/15 08:58:13;;;;;;;10.43;4.88;;;;;;;27.64;57.69;101808.34;5287844;28;20030;-70
2022/05/15 09:00:50;;;;;;;17.63;5.07;;;;;;;27.59;58.07;101808.28;5283408;28;20063;-70
2022/05/15 09:03:26;;;;;;;11.77;4.78;;;;;;;27.25;54.56;101813.06;5280016;28;20031;-70
2022/05/15 09:06:01;;;;;;;10.80;4.40;;;;;;;27.10;56.01;101803.50;5268423;28;20486;-70
2022/05/15 09:09:09;;;;;;;13.88;4.65;;;;;;;27.31;58.17;101809.28;5288064;28;20387;-70
2022/05/15 09:11:56;;;;;;;14.07;4.63;;;;;;;27.66;53.85;101795.13;5288268;28;20512;-70
2022/05/15 09:15:04;;;;;;;11.23;4.40;;;;;;;27.89;53.49;101788.53;5277851;28;20404;-71
2022/05/15 09:17:58;;;;;;;13.13;4.07;;;;;;;27.57;49.37;101793.94;5277232;28;20473;-70
2022/05/15 09:20:42;;;;;;;14.18;4.10;;;;;;;27.45;49.59;101799.56;5266943;28;20027;-70
2022/05/15 09:23:34;;;;;;;12.43;4.40;;;;;;;27.78;49.12;101786.78;5280955;28;20493;-70
2022/05/15 09:26:05;;;;;;;10.18;3.85;;;;;;;27.95;50.23;101797.69;5279828;28;20080;-70
2022/05/15 09:28:56;;;;;;;11.15;3.83;;;;;;;28.29;47.75;101787.28;5272989;28;20493;-70
2022/05/15 09:31:29;;;;;;;8.05;3.22;;;;;;;28.51;49.64;101788.03;5274424;28;20405;-71
2022/05/15 09:34:03;;;;;;;11.07;3.40;;;;;;;28.39;47.42;101790.16;5288459;28;20573;-70
2022/05/15 09:36:35;;;;;;;13.48;3.92;;;;;;;27.93;44.66;101786.09;5288048;28;20019;-71
2022/05/15 09:39:25;;;;;;;10.88;3.55;;;;;;;27.87;46.21;101787.97;5274948;28;20067;-70
2022/05/15 09:45:14;;;;;;;11.25;2.95;;;;;;;27.47;47.52;101778.13;5275943;28;20024;-70
2022/05/15 09:48:00;;;;;;;7.75;2.83;;;;;;;27.63;47.92;101779.97;5274379;28;20027;-70
2022/05/15 09:50:55;;;;;;;7.50;2.95;;;;;;;27.95;45.53;101783.91;5274159;27;20038;-70
2022/05/15 09:53:37;;;;;;;10.20;3.53;;;;;;;27.91;44.65;101783.59;5267241;28;20036;-70
2022/05/15 09:56:19;;;;;;;11.25;2.97;;;;;;;28.04;47.48;101777.66;5266728;28;20028;-70
2022/05/15 09:58:56;;;;;;;8.80;3.05;;;;;;;28.46;43.24;101776.13;5280059;28;20112;-70
2022/05/15 10:01:49;;;;;;;5.53;2.90;;;;;;;28.34;44.56;101776.31;5266798;28;20028;-70
2022/05/15 10:04:24;;;;;;;10.45;3.08;;;;;;;28.39;46.88;101768.91;5273517;28;20543;-71
2022/05/15 10:06:58;;;;;;;12.27;2.97;;;;;;;28.41;45.37;101754.00;5280641;28;20008;-70
2022/05/15 10:09:33;;;;;;;14.23;2.63;;;;;;;28.26;44.28;101768.47;5276074;28;20039;-71
2022/05/15 10:12:21;;;;;;;8.43;3.40;;;;;;;27.48;44.60;101763.25;5273973;28;20019;-70
2022/05/15 10:14:55;;;;;;;8.52;2.60;;;;;;;27.82;45.38;101758.44;5281612;28;20046;-71
2022/05/15 10:17:26;;;;;;;8.88;2.67;;;;;;;28.14;45.74;101761.22;5266360;28;20028;-71
2022/05/15 10:20:04;;;;;;;11.00;2.90;;;;;;;28.21;46.99;101766.50;5268048;28;20431;-70
2022/05/15 10:22:57;;;;;;;9.45;2.60;;;;;;;28.24;47.08;101749.44;5287492;28;20062;-70
2022/05/15 10:25:57;;;;;;;6.68;2.30;;;;;;;28.24;43.75;101743.91;5280491;27;20024;-70
2022/05/15 10:28:28;;;;;;;12.10;3.05;;;;;;;28.14;47.34;101738.31;5284503;28;20027;-70
2022/05/15 10:31:08;;;;;;;8.95;2.50;;;;;;;27.87;42.79;101747.44;5275363;28;20539;-70
2022/05/15 10:33:41;;;;;;;7.90;2.60;;;;;;;28.05;43.73;101743.47;5287190;28;20141;-71
2022/05/15 10:36:37;;;;;;;7.88;2.10;;;;;;;28.07;43.55;101743.22;5284274;28;20064;-71
2022/05/15 10:39:14;;;;;;;;;;;;;;;28.16;42.97;101732.53;5279921;28;20114;-70
2022/05/15 10:42:01;;;;;;;5.93;2.25;;;;;;;28.57;44.38;101731.81;5278339;28;19999;-70
2022/05/15 10:44:52;;;;;;;10.68;2.40;;;;;;;27.92;44.26;101729.28;5279415;28;20028;-70
2022/05/15 10:47:28;;;;;;;11.48;2.65;;;;;;;28.07;46.27;101730.28;5279869;28;20081;-71
2022/05/15 10:50:24;;;;;;;11.00;3.22;;;;;;;27.90;47.36;101724.03;5275457;28;20047;-70
2022/05/15 10:59:14;;;;;;;7.70;2.15;;;;;;;28.29;45.36;101715.53;5269289;28;20035;-70
2022/05/15 11:01:55;;;;;;;8.20;2.40;;;;;;;28.28;44.55;101717.47;5287055;28;20129;-71
2022/05/15 11:05:11;;;;;;;9.35;2.72;;;;;;;28.01;42.37;101717.50;5266209;28;20062;-70
2022/05/15 11:07:51;;;;;;;7.53;2.40;;;;;;;27.84;39.83;101708.53;5274698;28;20038;-70
2022/05/15 11:10:53;;;;;;;6.10;2.25;;;;;;;27.95;40.53;101703.94;5279667;28;20047;-71
2022/05/15 11:13:34;;;;;;;6.40;1.98;;;;;;;28.01;46.11;101700.97;5279791;28;20031;-70
2022/05/15 11:16:28;;;;;;;7.97;2.05;;;;;;;27.98;42.81;101693.22;5273803;28;20031;-71
2022/05/15 11:19:31;;;;;;;7.38;2.53;;;;;;;27.54;43.48;101690.56;5273592;28;20068;-71
2022/05/15 11:22:01;;;;;;;4.95;2.25;;;;;;;27.66;41.07;101678.53;5272986;28;20027;-71
2022/05/15 11:24:48;;;;;;;9.23;2.03;;;;;;;27.94;41.91;101677.47;5273976;28;20073;-70
2022/05/15 11:27:29;;;;;;;7.45;2.00;;;;;;;27.92;42.43;101669.47;5275518;28;20480;-71
2022/05/15 11:30:07;;;;;;;5.63;1.85;;;;;;;27.45;41.79;101678.31;5273063;28;20393;-71
2022/05/15 11:32:53;;;;;;;5.13;2.38;;;;;;;27.53;47.86;101669.59;5287222;28;20381;-70
2022/05/15 11:35:29;;;;;;;10.02;2.45;;;;;;;27.67;44.43;101660.94;5265643;28;20031;-70
2022/05/15 11:37:59;;;;;;;9.70;2.50;;;;;;;27.63;45.98;101661.44;5269523;28;20081;-70
2022/05/15 11:40:50;;;;;;;4.68;2.03;;;;;;;27.89;42.75;101661.72;5275510;28;20028;-70
2022/05/15 11:43:55;;;;;;;11.70;2.85;;;;;;;27.75;43.04;101654.94;5266031;28;20455;-70
2022/05/15 11:46:45;;;;;;;5.07;2.60;;;;;;;27.83;41.58;101647.03;5279529;28;20035;-71
2022/05/15 11:49:25;;;;;;;6.82;2.40;;;;;;;27.93;41.40;101651.81;5278946;28;20074;-71
2022/05/15 11:52:15;;;;;;;6.03;2.22;;;;;;;27.80;44.66;101639.28;5280037;28;20061;-70
2022/05/15 11:54:49;;;;;;;9.30;2.22;;;;;;;27.77;44.14;101645.34;5281692;28;20103;-70
2022/05/15 11:57:51;;;;;;;4.80;2.03;;;;;;;27.48;43.44;101642.00;5283192;28;20042;-71
2022/05/15 12:00:25;;;;;;;9.65;2.40;;;;;;;27.61;43.78;101640.72;5283186;28;20032;-70
2022/05/15 12:02:58;;;;;;;3.67;1.83;;;;;;;27.59;43.88;101635.47;5269443;28;20032;-70
2022/05/15 12:05:36;;;;;;;5.78;2.20;;;;;;;28.20;43.60;101620.56;5269315;28;20117;-70
2022/05/15 12:08:19;;;;;;;7.05;2.30;;;;;;;28.07;46.31;101628.22;5277475;28;20024;-71
2022/05/15 12:10:50;;;;;;;7.05;2.28;;;;;;;27.61;43.54;101622.28;5269210;28;20430;-70
2022/05/15 12:13:36;;;;;;;9.00;2.53;;;;;;;27.44;44.72;101620.72;5283904;28;20110;-71
2022/05/15 12:16:26;;;;;;;7.28;2.63;;;;;;;28.02;43.60;101614.38;5278633;28;20032;-70